sensor_id;sensor_type;location;lat;lon;timestamp;P1;durP1;ratioP1;P2;durP2;ratioP2
16705;SDS011;8469;60.136;15.180;2022-08-19T00:00:49;23.33;;;9.37;;
16705;SDS011;8469;60.136;15.180;2022-08-19T00:03:16;19.00;;;8.90;;
16705;SDS011;8469;60.136;15.180;2022-08-19T00:05:43;16.07;;;8.53;;
16705;SDS011;8469;60.136;15.180;2022-08-19T00:08:11;19.17;;;8.65;;
16705;SDS011;8469;60.136;15.180;2022-08-19T00:10:38;25.45;;;8.85;;
16705;SDS011;8469;60.136;15.180;2022-08-19T00:13:06;16.50;;;8.73;;
16705;SDS011;8469;60.136;15.180;2022-08-19T00:15:33;18.85;;;9.15;;
16705;SDS011;8469;60.136;15.180;2022-08-19T00:18:00;25.17;;;8.90;;
16705;SDS011;8469;60.136;15.180;2022-08-19T00:20:27;21.75;;;9.08;;
16705;SDS011;8469;60.136;15.180;2022-08-19T00:22:55;32.10;;;8.18;;
16705;SDS011;8469;60.136;15.180;2022-08-19T00:25:22;18.30;;;9.47;;
16705;SDS011;8469;60.136;15.180;2022-08-19T00:27:49;26.30;;;8.83;;
16705;SDS011;8469;60.136;15.180;2022-08-19T00:30:17;28.23;;;9.13;;
16705;SDS011;8469;60.136;15.180;2022-08-19T00:32:44;23.07;;;9.08;;
16705;SDS011;8469;60.136;15.180;2022-08-19T00:35:11;27.07;;;9.43;;
16705;SDS011;8469;60.136;15.180;2022-08-19T00:37:38;29.37;;;9.43;;
16705;SDS011;8469;60.136;15.180;2022-08-19T00:40:07;30.57;;;10.05;;
16705;SDS011;8469;60.136;15.180;2022-08-19T00:42:35;25.15;;;10.15;;
16705;SDS011;8469;60.136;15.180;2022-08-19T00:45:05;22.27;;;9.10;;
16705;SDS011;8469;60.136;15.180;2022-08-19T00:47:33;22.32;;;8.95;;
16705;SDS011;8469;60.136;15.180;2022-08-19T00:50:00;29.10;;;9.58;;
16705;SDS011;8469;60.136;15.180;2022-08-19T00:52:28;26.17;;;9.50;;
16705;SDS011;8469;60.136;15.180;2022-08-19T00:54:57;29.40;;;9.63;;
16705;SDS011;8469;60.136;15.180;2022-08-19T00:57:30;36.90;;;9.90;;
16705;SDS011;8469;60.136;15.180;2022-08-19T00:59:56;31.93;;;9.45;;
16705;SDS011;8469;60.136;15.180;2022-08-19T01:02:25;16.35;;;8.58;;
16705;SDS011;8469;60.136;15.180;2022-08-19T01:04:53;16.15;;;8.70;;
16705;SDS011;8469;60.136;15.180;2022-08-19T01:07:21;20.70;;;8.20;;
16705;SDS011;8469;60.136;15.180;2022-08-19T01:09:48;25.92;;;8.50;;
16705;SDS011;8469;60.136;15.180;2022-08-19T01:12:16;17.30;;;8.18;;
16705;SDS011;8469;60.136;15.180;2022-08-19T01:14:43;19.15;;;8.58;;
16705;SDS011;8469;60.136;15.180;2022-08-19T01:17:12;15.75;;;8.20;;
16705;SDS011;8469;60.136;15.180;2022-08-19T01:19:40;18.57;;;7.90;;
16705;SDS011;8469;60.136;15.180;2022-08-19T01:22:09;13.50;;;7.50;;
16705;SDS011;8469;60.136;15.180;2022-08-19T01:24:37;18.32;;;8.28;;
16705;SDS011;8469;60.136;15.180;2022-08-19T01:27:04;18.77;;;8.20;;
16705;SDS011;8469;60.136;15.180;2022-08-19T01:29:32;14.70;;;8.10;;
16705;SDS011;8469;60.136;15.180;2022-08-19T01:31:59;21.35;;;8.88;;
16705;SDS011;8469;60.136;15.180;2022-08-19T01:34:27;18.30;;;8.60;;
16705;SDS011;8469;60.136;15.180;2022-08-19T01:36:54;15.05;;;8.38;;
16705;SDS011;8469;60.136;15.180;2022-08-19T01:39:23;14.15;;;8.35;;
16705;SDS011;8469;60.136;15.180;2022-08-19T01:41:51;13.20;;;7.12;;
16705;SDS011;8469;60.136;15.180;2022-08-19T01:44:21;12.65;;;7.25;;
16705;SDS011;8469;60.136;15.180;2022-08-19T01:46:50;11.10;;;6.80;;
16705;SDS011;8469;60.136;15.180;2022-08-19T01:49:18;7.83;;;6.05;;
16705;SDS011;8469;60.136;15.180;2022-08-19T01:51:46;7.03;;;5.67;;
16705;SDS011;8469;60.136;15.180;2022-08-19T01:54:15;9.00;;;6.10;;
16705;SDS011;8469;60.136;15.180;2022-08-19T01:56:42;7.60;;;5.93;;
16705;SDS011;8469;60.136;15.180;2022-08-19T01:59:11;7.55;;;5.35;;
16705;SDS011;8469;60.136;15.180;2022-08-19T02:01:38;5.75;;;5.03;;
16705;SDS011;8469;60.136;15.180;2022-08-19T02:04:06;6.40;;;5.10;;
16705;SDS011;8469;60.136;15.180;2022-08-19T02:06:33;6.53;;;5.55;;
16705;SDS011;8469;60.136;15.180;2022-08-19T02:09:02;7.25;;;5.28;;
16705;SDS011;8469;60.136;15.180;2022-08-19T02:11:31;6.50;;;5.00;;
16705;SDS011;8469;60.136;15.180;2022-08-19T02:14:04;7.37;;;4.78;;
16705;SDS011;8469;60.136;15.180;2022-08-19T02:16:28;5.27;;;4.77;;
16705;SDS011;8469;60.136;15.180;2022-08-19T02:18:56;6.87;;;5.10;;
16705;SDS011;8469;60.136;15.180;2022-08-19T02:21:26;4.97;;;4.53;;
16705;SDS011;8469;60.136;15.180;2022-08-19T02:23:53;5.65;;;4.75;;
16705;SDS011;8469;60.136;15.180;2022-08-19T02:26:21;5.27;;;4.63;;
16705;SDS011;8469;60.136;15.180;2022-08-19T02:28:49;6.95;;;4.70;;
16705;SDS011;8469;60.136;15.180;2022-08-19T02:31:18;5.55;;;4.47;;
16705;SDS011;8469;60.136;15.180;2022-08-19T02:33:45;4.53;;;4.13;;
16705;SDS011;8469;60.136;15.180;2022-08-19T02:36:14;5.03;;;4.53;;
16705;SDS011;8469;60.136;15.180;2022-08-19T02:38:42;7.00;;;4.47;;
16705;SDS011;8469;60.136;15.180;2022-08-19T02:41:15;5.35;;;4.35;;
16705;SDS011;8469;60.136;15.180;2022-08-19T02:43:38;5.08;;;4.28;;
16705;SDS011;8469;60.136;15.180;2022-08-19T02:46:13;6.62;;;5.25;;
16705;SDS011;8469;60.136;15.180;2022-08-19T02:48:40;6.90;;;4.83;;
16705;SDS011;8469;60.136;15.180;2022-08-19T02:51:07;5.53;;;4.70;;
16705;SDS011;8469;60.136;15.180;2022-08-19T02:53:35;5.22;;;4.70;;
16705;SDS011;8469;60.136;15.180;2022-08-19T02:56:05;5.00;;;4.40;;
16705;SDS011;8469;60.136;15.180;2022-08-19T02:58:32;7.67;;;4.60;;
16705;SDS011;8469;60.136;15.180;2022-08-19T03:00:59;7.47;;;4.87;;
16705;SDS011;8469;60.136;15.180;2022-08-19T03:03:26;6.40;;;4.97;;
16705;SDS011;8469;60.136;15.180;2022-08-19T03:06:10;9.48;;;5.25;;
16705;SDS011;8469;60.136;15.180;2022-08-19T03:08:31;6.15;;;5.40;;
16705;SDS011;8469;60.136;15.180;2022-08-19T03:10:59;7.60;;;5.20;;
16705;SDS011;8469;60.136;15.180;2022-08-19T03:13:26;7.35;;;5.50;;
16705;SDS011;8469;60.136;15.180;2022-08-19T03:15:54;7.15;;;5.53;;
16705;SDS011;8469;60.136;15.180;2022-08-19T03:18:21;8.20;;;5.45;;
16705;SDS011;8469;60.136;15.180;2022-08-19T03:20:49;7.62;;;5.53;;
16705;SDS011;8469;60.136;15.180;2022-08-19T03:23:19;7.58;;;5.20;;
16705;SDS011;8469;60.136;15.180;2022-08-19T03:25:47;7.92;;;5.37;;
16705;SDS011;8469;60.136;15.180;2022-08-19T03:28:16;7.92;;;5.47;;
16705;SDS011;8469;60.136;15.180;2022-08-19T03:30:54;6.85;;;5.17;;
16705;SDS011;8469;60.136;15.180;2022-08-19T03:33:12;7.03;;;5.20;;
16705;SDS011;8469;60.136;15.180;2022-08-19T03:35:39;11.63;;;5.70;;
16705;SDS011;8469;60.136;15.180;2022-08-19T03:38:07;7.03;;;5.53;;
16705;SDS011;8469;60.136;15.180;2022-08-19T03:40:36;6.67;;;5.42;;
16705;SDS011;8469;60.136;15.180;2022-08-19T03:43:03;8.20;;;5.35;;
16705;SDS011;8469;60.136;15.180;2022-08-19T03:45:30;6.65;;;5.53;;
16705;SDS011;8469;60.136;15.180;2022-08-19T03:47:57;6.67;;;5.50;;
16705;SDS011;8469;60.136;15.180;2022-08-19T03:50:25;9.13;;;5.92;;
16705;SDS011;8469;60.136;15.180;2022-08-19T03:52:52;8.10;;;6.17;;
16705;SDS011;8469;60.136;15.180;2022-08-19T03:55:19;8.45;;;5.70;;
16705;SDS011;8469;60.136;15.180;2022-08-19T03:57:47;8.15;;;5.78;;
16705;SDS011;8469;60.136;15.180;2022-08-19T04:00:14;6.10;;;5.40;;
16705;SDS011;8469;60.136;15.180;2022-08-19T04:02:42;7.80;;;6.10;;
16705;SDS011;8469;60.136;15.180;2022-08-19T04:05:09;6.92;;;5.72;;
16705;SDS011;8469;60.136;15.180;2022-08-19T04:07:37;11.65;;;6.33;;
16705;SDS011;8469;60.136;15.180;2022-08-19T04:10:04;8.20;;;6.25;;
16705;SDS011;8469;60.136;15.180;2022-08-19T04:12:32;9.60;;;5.53;;
16705;SDS011;8469;60.136;15.180;2022-08-19T04:14:59;11.00;;;6.30;;
16705;SDS011;8469;60.136;15.180;2022-08-19T04:17:26;8.17;;;6.27;;
16705;SDS011;8469;60.136;15.180;2022-08-19T04:19:53;10.63;;;6.62;;
16705;SDS011;8469;60.136;15.180;2022-08-19T04:22:21;7.62;;;6.12;;
16705;SDS011;8469;60.136;15.180;2022-08-19T04:24:48;9.98;;;6.60;;
16705;SDS011;8469;60.136;15.180;2022-08-19T04:27:15;9.50;;;6.30;;
16705;SDS011;8469;60.136;15.180;2022-08-19T04:29:42;8.35;;;6.37;;
16705;SDS011;8469;60.136;15.180;2022-08-19T04:32:10;7.20;;;6.30;;
16705;SDS011;8469;60.136;15.180;2022-08-19T04:34:37;7.37;;;5.83;;
16705;SDS011;8469;60.136;15.180;2022-08-19T04:37:05;6.93;;;6.00;;
16705;SDS011;8469;60.136;15.180;2022-08-19T04:39:34;9.00;;;6.90;;
16705;SDS011;8469;60.136;15.180;2022-08-19T04:42:19;9.93;;;6.65;;
16705;SDS011;8469;60.136;15.180;2022-08-19T04:45:05;8.83;;;6.40;;
16705;SDS011;8469;60.136;15.180;2022-08-19T04:47:32;11.53;;;7.50;;
16705;SDS011;8469;60.136;15.180;2022-08-19T04:50:00;10.37;;;6.63;;
16705;SDS011;8469;60.136;15.180;2022-08-19T04:52:27;9.20;;;6.62;;
16705;SDS011;8469;60.136;15.180;2022-08-19T04:54:54;10.48;;;7.25;;
16705;SDS011;8469;60.136;15.180;2022-08-19T04:57:22;13.68;;;7.12;;
16705;SDS011;8469;60.136;15.180;2022-08-19T04:59:49;10.03;;;6.62;;
16705;SDS011;8469;60.136;15.180;2022-08-19T05:02:18;8.30;;;6.45;;
16705;SDS011;8469;60.136;15.180;2022-08-19T05:04:45;9.05;;;6.65;;
16705;SDS011;8469;60.136;15.180;2022-08-19T05:07:12;10.13;;;6.55;;
16705;SDS011;8469;60.136;15.180;2022-08-19T05:09:39;7.90;;;6.37;;
16705;SDS011;8469;60.136;15.180;2022-08-19T05:12:07;8.63;;;6.30;;
16705;SDS011;8469;60.136;15.180;2022-08-19T05:14:34;10.82;;;6.90;;
16705;SDS011;8469;60.136;15.180;2022-08-19T05:17:05;9.75;;;6.55;;
16705;SDS011;8469;60.136;15.180;2022-08-19T05:19:31;8.73;;;6.27;;
16705;SDS011;8469;60.136;15.180;2022-08-19T05:22:17;9.68;;;6.78;;
16705;SDS011;8469;60.136;15.180;2022-08-19T05:25:02;9.50;;;6.67;;
16705;SDS011;8469;60.136;15.180;2022-08-19T05:27:29;8.60;;;6.72;;
16705;SDS011;8469;60.136;15.180;2022-08-19T05:29:57;8.80;;;6.33;;
16705;SDS011;8469;60.136;15.180;2022-08-19T05:32:24;10.03;;;6.85;;
16705;SDS011;8469;60.136;15.180;2022-08-19T05:34:51;9.95;;;6.87;;
16705;SDS011;8469;60.136;15.180;2022-08-19T05:37:19;11.78;;;6.78;;
16705;SDS011;8469;60.136;15.180;2022-08-19T05:39:46;11.05;;;6.65;;
16705;SDS011;8469;60.136;15.180;2022-08-19T05:42:15;8.50;;;6.60;;
16705;SDS011;8469;60.136;15.180;2022-08-19T05:44:42;8.20;;;6.22;;
16705;SDS011;8469;60.136;15.180;2022-08-19T05:47:15;8.23;;;6.30;;
16705;SDS011;8469;60.136;15.180;2022-08-19T05:49:45;7.78;;;6.47;;
16705;SDS011;8469;60.136;15.180;2022-08-19T05:52:13;6.85;;;6.12;;
16705;SDS011;8469;60.136;15.180;2022-08-19T05:54:41;7.17;;;6.12;;
16705;SDS011;8469;60.136;15.180;2022-08-19T05:57:09;8.25;;;6.03;;
16705;SDS011;8469;60.136;15.180;2022-08-19T05:59:36;8.30;;;6.53;;
16705;SDS011;8469;60.136;15.180;2022-08-19T06:02:04;9.65;;;6.30;;
16705;SDS011;8469;60.136;15.180;2022-08-19T06:04:32;7.78;;;6.05;;
16705;SDS011;8469;60.136;15.180;2022-08-19T06:06:59;6.72;;;5.78;;
16705;SDS011;8469;60.136;15.180;2022-08-19T06:09:28;6.37;;;5.78;;
16705;SDS011;8469;60.136;15.180;2022-08-19T06:11:56;6.60;;;5.87;;
16705;SDS011;8469;60.136;15.180;2022-08-19T06:14:32;6.80;;;5.80;;
16705;SDS011;8469;60.136;15.180;2022-08-19T06:16:54;7.50;;;6.17;;
16705;SDS011;8469;60.136;15.180;2022-08-19T06:19:22;7.25;;;6.03;;
16705;SDS011;8469;60.136;15.180;2022-08-19T06:21:52;8.45;;;6.67;;
16705;SDS011;8469;60.136;15.180;2022-08-19T06:24:21;11.53;;;6.80;;
16705;SDS011;8469;60.136;15.180;2022-08-19T06:26:51;12.13;;;6.75;;
16705;SDS011;8469;60.136;15.180;2022-08-19T06:29:19;10.40;;;7.00;;
16705;SDS011;8469;60.136;15.180;2022-08-19T06:31:48;12.47;;;6.60;;
16705;SDS011;8469;60.136;15.180;2022-08-19T06:34:17;9.70;;;6.53;;
16705;SDS011;8469;60.136;15.180;2022-08-19T06:36:45;9.28;;;6.58;;
16705;SDS011;8469;60.136;15.180;2022-08-19T06:39:14;10.90;;;6.75;;
16705;SDS011;8469;60.136;15.180;2022-08-19T06:41:47;12.13;;;7.37;;
16705;SDS011;8469;60.136;15.180;2022-08-19T06:44:10;11.43;;;7.72;;
16705;SDS011;8469;60.136;15.180;2022-08-19T06:46:39;12.65;;;8.85;;
16705;SDS011;8469;60.136;15.180;2022-08-19T06:49:08;14.63;;;8.93;;
16705;SDS011;8469;60.136;15.180;2022-08-19T06:51:37;17.03;;;9.20;;
16705;SDS011;8469;60.136;15.180;2022-08-19T06:54:05;16.10;;;9.00;;
16705;SDS011;8469;60.136;15.180;2022-08-19T06:56:32;14.65;;;9.43;;
16705;SDS011;8469;60.136;15.180;2022-08-19T06:59:01;17.75;;;8.95;;
16705;SDS011;8469;60.136;15.180;2022-08-19T07:01:37;16.48;;;9.63;;
16705;SDS011;8469;60.136;15.180;2022-08-19T07:04:08;20.12;;;10.13;;
16705;SDS011;8469;60.136;15.180;2022-08-19T07:06:36;18.37;;;11.10;;
16705;SDS011;8469;60.136;15.180;2022-08-19T07:09:08;17.50;;;10.45;;
16705;SDS011;8469;60.136;15.180;2022-08-19T07:11:32;16.93;;;10.72;;
16705;SDS011;8469;60.136;15.180;2022-08-19T07:14:00;16.95;;;10.80;;
16705;SDS011;8469;60.136;15.180;2022-08-19T07:16:28;16.62;;;11.20;;
16705;SDS011;8469;60.136;15.180;2022-08-19T07:18:56;17.20;;;11.40;;
16705;SDS011;8469;60.136;15.180;2022-08-19T07:21:24;17.52;;;10.60;;
16705;SDS011;8469;60.136;15.180;2022-08-19T07:23:54;18.52;;;11.30;;
16705;SDS011;8469;60.136;15.180;2022-08-19T07:26:24;16.57;;;11.47;;
16705;SDS011;8469;60.136;15.180;2022-08-19T07:28:54;19.07;;;12.05;;
16705;SDS011;8469;60.136;15.180;2022-08-19T07:31:22;16.25;;;11.78;;
16705;SDS011;8469;60.136;15.180;2022-08-19T07:33:50;17.62;;;12.47;;
16705;SDS011;8469;60.136;15.180;2022-08-19T07:36:19;20.68;;;12.88;;
16705;SDS011;8469;60.136;15.180;2022-08-19T07:38:47;18.47;;;12.97;;
16705;SDS011;8469;60.136;15.180;2022-08-19T07:41:22;20.30;;;12.82;;
16705;SDS011;8469;60.136;15.180;2022-08-19T07:43:44;19.62;;;13.08;;
16705;SDS011;8469;60.136;15.180;2022-08-19T07:46:12;18.42;;;13.68;;
16705;SDS011;8469;60.136;15.180;2022-08-19T07:48:40;16.23;;;12.53;;
16705;SDS011;8469;60.136;15.180;2022-08-19T07:51:12;17.95;;;12.37;;
16705;SDS011;8469;60.136;15.180;2022-08-19T07:53:40;18.80;;;13.70;;
16705;SDS011;8469;60.136;15.180;2022-08-19T07:56:07;17.32;;;12.60;;
16705;SDS011;8469;60.136;15.180;2022-08-19T07:58:36;19.17;;;13.75;;
16705;SDS011;8469;60.136;15.180;2022-08-19T08:01:04;22.33;;;13.40;;
16705;SDS011;8469;60.136;15.180;2022-08-19T08:03:32;21.50;;;14.50;;
16705;SDS011;8469;60.136;15.180;2022-08-19T08:06:17;20.37;;;14.53;;
16705;SDS011;8469;60.136;15.180;2022-08-19T08:09:03;18.98;;;13.78;;
16705;SDS011;8469;60.136;15.180;2022-08-19T08:11:45;18.90;;;13.57;;
16705;SDS011;8469;60.136;15.180;2022-08-19T08:14:17;18.87;;;13.60;;
16705;SDS011;8469;60.136;15.180;2022-08-19T08:16:44;18.37;;;13.50;;
16705;SDS011;8469;60.136;15.180;2022-08-19T08:19:12;20.25;;;13.53;;
16705;SDS011;8469;60.136;15.180;2022-08-19T08:21:41;19.95;;;13.53;;
16705;SDS011;8469;60.136;15.180;2022-08-19T08:24:08;17.48;;;13.22;;
16705;SDS011;8469;60.136;15.180;2022-08-19T08:26:36;20.37;;;13.50;;
16705;SDS011;8469;60.136;15.180;2022-08-19T08:29:03;20.93;;;14.00;;
16705;SDS011;8469;60.136;15.180;2022-08-19T08:31:30;18.80;;;13.65;;
16705;SDS011;8469;60.136;15.180;2022-08-19T08:33:59;20.43;;;13.83;;
16705;SDS011;8469;60.136;15.180;2022-08-19T08:36:27;18.80;;;13.55;;
16705;SDS011;8469;60.136;15.180;2022-08-19T08:38:54;21.35;;;13.70;;
16705;SDS011;8469;60.136;15.180;2022-08-19T08:43:57;20.08;;;13.85;;
16705;SDS011;8469;60.136;15.180;2022-08-19T08:46:27;19.67;;;13.28;;
16705;SDS011;8469;60.136;15.180;2022-08-19T08:48:54;19.52;;;13.50;;
16705;SDS011;8469;60.136;15.180;2022-08-19T08:51:23;16.13;;;13.10;;
16705;SDS011;8469;60.136;15.180;2022-08-19T08:53:53;15.72;;;13.28;;
16705;SDS011;8469;60.136;15.180;2022-08-19T08:56:21;18.75;;;13.58;;
16705;SDS011;8469;60.136;15.180;2022-08-19T08:58:51;18.98;;;13.93;;
16705;SDS011;8469;60.136;15.180;2022-08-19T09:01:18;17.32;;;13.05;;
16705;SDS011;8469;60.136;15.180;2022-08-19T09:03:46;16.07;;;13.10;;
16705;SDS011;8469;60.136;15.180;2022-08-19T09:06:24;17.62;;;13.95;;
16705;SDS011;8469;60.136;15.180;2022-08-19T09:11:30;22.47;;;14.70;;
16705;SDS011;8469;60.136;15.180;2022-08-19T09:16:25;17.95;;;13.70;;
16705;SDS011;8469;60.136;15.180;2022-08-19T09:19:03;18.07;;;14.00;;
16705;SDS011;8469;60.136;15.180;2022-08-19T09:21:24;19.12;;;14.75;;
16705;SDS011;8469;60.136;15.180;2022-08-19T09:23:52;21.62;;;15.38;;
16705;SDS011;8469;60.136;15.180;2022-08-19T09:26:20;19.20;;;14.47;;
16705;SDS011;8469;60.136;15.180;2022-08-19T09:28:49;21.17;;;15.45;;
16705;SDS011;8469;60.136;15.180;2022-08-19T09:31:19;20.00;;;14.90;;
16705;SDS011;8469;60.136;15.180;2022-08-19T09:33:46;21.95;;;15.55;;
16705;SDS011;8469;60.136;15.180;2022-08-19T09:36:15;20.90;;;15.30;;
16705;SDS011;8469;60.136;15.180;2022-08-19T09:38:42;20.82;;;15.15;;
16705;SDS011;8469;60.136;15.180;2022-08-19T09:41:12;19.30;;;15.90;;
16705;SDS011;8469;60.136;15.180;2022-08-19T09:43:40;20.25;;;15.65;;
16705;SDS011;8469;60.136;15.180;2022-08-19T09:46:08;23.90;;;16.75;;
16705;SDS011;8469;60.136;15.180;2022-08-19T09:48:36;23.20;;;15.63;;
16705;SDS011;8469;60.136;15.180;2022-08-19T09:51:08;26.75;;;16.48;;
16705;SDS011;8469;60.136;15.180;2022-08-19T09:53:35;21.63;;;16.27;;
16705;SDS011;8469;60.136;15.180;2022-08-19T09:56:04;22.45;;;16.50;;
16705;SDS011;8469;60.136;15.180;2022-08-19T09:58:32;21.80;;;15.93;;
16705;SDS011;8469;60.136;15.180;2022-08-19T10:01:01;25.25;;;16.15;;
16705;SDS011;8469;60.136;15.180;2022-08-19T10:03:29;31.62;;;19.23;;
16705;SDS011;8469;60.136;15.180;2022-08-19T10:05:57;32.53;;;19.42;;
16705;SDS011;8469;60.136;15.180;2022-08-19T10:08:26;31.87;;;19.90;;
16705;SDS011;8469;60.136;15.180;2022-08-19T10:10:54;35.08;;;18.70;;
16705;SDS011;8469;60.136;15.180;2022-08-19T10:13:23;28.45;;;18.65;;
16705;SDS011;8469;60.136;15.180;2022-08-19T10:15:52;29.18;;;18.32;;
16705;SDS011;8469;60.136;15.180;2022-08-19T10:18:20;27.52;;;18.55;;
16705;SDS011;8469;60.136;15.180;2022-08-19T10:20:49;25.10;;;18.52;;
16705;SDS011;8469;60.136;15.180;2022-08-19T10:23:19;30.30;;;18.57;;
16705;SDS011;8469;60.136;15.180;2022-08-19T10:25:47;27.80;;;17.50;;
16705;SDS011;8469;60.136;15.180;2022-08-19T10:28:14;26.23;;;17.77;;
16705;SDS011;8469;60.136;15.180;2022-08-19T10:30:42;24.57;;;16.82;;
16705;SDS011;8469;60.136;15.180;2022-08-19T10:33:10;22.53;;;16.87;;
16705;SDS011;8469;60.136;15.180;2022-08-19T10:35:38;27.93;;;17.40;;
16705;SDS011;8469;60.136;15.180;2022-08-19T10:38:05;28.13;;;17.43;;
16705;SDS011;8469;60.136;15.180;2022-08-19T10:40:32;24.70;;;17.27;;
16705;SDS011;8469;60.136;15.180;2022-08-19T10:43:01;21.60;;;16.87;;
16705;SDS011;8469;60.136;15.180;2022-08-19T10:45:28;24.95;;;17.20;;
16705;SDS011;8469;60.136;15.180;2022-08-19T10:47:55;24.90;;;18.17;;
16705;SDS011;8469;60.136;15.180;2022-08-19T10:50:22;25.97;;;16.60;;
16705;SDS011;8469;60.136;15.180;2022-08-19T10:53:08;19.92;;;15.58;;
16705;SDS011;8469;60.136;15.180;2022-08-19T10:55:35;22.30;;;16.03;;
16705;SDS011;8469;60.136;15.180;2022-08-19T10:58:21;20.65;;;15.95;;
16705;SDS011;8469;60.136;15.180;2022-08-19T11:00:53;21.20;;;16.07;;
16705;SDS011;8469;60.136;15.180;2022-08-19T11:03:21;20.13;;;15.23;;
16705;SDS011;8469;60.136;15.180;2022-08-19T11:05:58;19.27;;;14.90;;
16705;SDS011;8469;60.136;15.180;2022-08-19T11:08:26;18.82;;;13.62;;
16705;SDS011;8469;60.136;15.180;2022-08-19T11:10:54;21.35;;;13.90;;
16705;SDS011;8469;60.136;15.180;2022-08-19T11:13:23;14.35;;;11.73;;
16705;SDS011;8469;60.136;15.180;2022-08-19T11:15:57;15.68;;;12.03;;
16705;SDS011;8469;60.136;15.180;2022-08-19T11:18:25;15.90;;;11.73;;
16705;SDS011;8469;60.136;15.180;2022-08-19T11:20:52;16.17;;;11.85;;
16705;SDS011;8469;60.136;15.180;2022-08-19T11:23:19;16.20;;;12.43;;
16705;SDS011;8469;60.136;15.180;2022-08-19T11:25:47;13.93;;;11.63;;
16705;SDS011;8469;60.136;15.180;2022-08-19T11:28:15;14.90;;;12.20;;
16705;SDS011;8469;60.136;15.180;2022-08-19T11:30:43;14.85;;;11.40;;
16705;SDS011;8469;60.136;15.180;2022-08-19T11:33:11;15.48;;;11.90;;
16705;SDS011;8469;60.136;15.180;2022-08-19T11:35:39;16.67;;;11.48;;
16705;SDS011;8469;60.136;15.180;2022-08-19T11:38:06;14.75;;;12.07;;
16705;SDS011;8469;60.136;15.180;2022-08-19T11:40:34;16.42;;;11.40;;
16705;SDS011;8469;60.136;15.180;2022-08-19T11:43:01;16.20;;;11.95;;
16705;SDS011;8469;60.136;15.180;2022-08-19T11:45:28;16.23;;;11.33;;
16705;SDS011;8469;60.136;15.180;2022-08-19T11:47:55;13.35;;;10.93;;
16705;SDS011;8469;60.136;15.180;2022-08-19T11:50:23;14.40;;;10.80;;
16705;SDS011;8469;60.136;15.180;2022-08-19T11:52:53;16.00;;;11.48;;
16705;SDS011;8469;60.136;15.180;2022-08-19T11:55:20;15.28;;;11.35;;
16705;SDS011;8469;60.136;15.180;2022-08-19T11:57:47;13.97;;;11.03;;
16705;SDS011;8469;60.136;15.180;2022-08-19T12:00:14;14.78;;;12.23;;
16705;SDS011;8469;60.136;15.180;2022-08-19T12:02:42;15.30;;;12.03;;
16705;SDS011;8469;60.136;15.180;2022-08-19T12:05:09;16.25;;;11.83;;
16705;SDS011;8469;60.136;15.180;2022-08-19T12:07:36;17.90;;;11.20;;
16705;SDS011;8469;60.136;15.180;2022-08-19T12:10:04;18.48;;;12.15;;
16705;SDS011;8469;60.136;15.180;2022-08-19T12:12:31;19.15;;;12.00;;
16705;SDS011;8469;60.136;15.180;2022-08-19T12:14:58;13.40;;;11.85;;
16705;SDS011;8469;60.136;15.180;2022-08-19T12:17:26;15.83;;;11.90;;
16705;SDS011;8469;60.136;15.180;2022-08-19T12:19:54;17.60;;;12.13;;
16705;SDS011;8469;60.136;15.180;2022-08-19T12:22:21;14.83;;;12.35;;
16705;SDS011;8469;60.136;15.180;2022-08-19T12:24:48;16.15;;;12.75;;
16705;SDS011;8469;60.136;15.180;2022-08-19T12:27:18;19.00;;;13.03;;
16705;SDS011;8469;60.136;15.180;2022-08-19T12:29:45;15.85;;;12.95;;
16705;SDS011;8469;60.136;15.180;2022-08-19T12:32:12;17.23;;;12.90;;
16705;SDS011;8469;60.136;15.180;2022-08-19T12:34:40;20.15;;;13.43;;
16705;SDS011;8469;60.136;15.180;2022-08-19T12:37:07;18.33;;;13.20;;
16705;SDS011;8469;60.136;15.180;2022-08-19T12:39:41;16.75;;;13.60;;
16705;SDS011;8469;60.136;15.180;2022-08-19T12:42:03;19.70;;;14.38;;
16705;SDS011;8469;60.136;15.180;2022-08-19T12:44:32;18.70;;;14.23;;
16705;SDS011;8469;60.136;15.180;2022-08-19T12:47:00;20.17;;;14.18;;
16705;SDS011;8469;60.136;15.180;2022-08-19T12:49:29;19.20;;;13.65;;
16705;SDS011;8469;60.136;15.180;2022-08-19T12:51:57;23.38;;;14.83;;
16705;SDS011;8469;60.136;15.180;2022-08-19T12:54:25;21.35;;;14.40;;
16705;SDS011;8469;60.136;15.180;2022-08-19T12:56:52;19.35;;;13.98;;
16705;SDS011;8469;60.136;15.180;2022-08-19T12:59:20;20.43;;;14.00;;
16705;SDS011;8469;60.136;15.180;2022-08-19T13:01:47;20.87;;;14.23;;
16705;SDS011;8469;60.136;15.180;2022-08-19T13:04:14;17.52;;;14.70;;
16705;SDS011;8469;60.136;15.180;2022-08-19T13:06:42;20.52;;;13.88;;
16705;SDS011;8469;60.136;15.180;2022-08-19T13:09:10;15.90;;;13.40;;
16705;SDS011;8469;60.136;15.180;2022-08-19T13:11:37;20.97;;;14.17;;
16705;SDS011;8469;60.136;15.180;2022-08-19T13:14:04;23.42;;;14.40;;
16705;SDS011;8469;60.136;15.180;2022-08-19T13:16:32;19.75;;;13.50;;
16705;SDS011;8469;60.136;15.180;2022-08-19T13:18:59;21.35;;;13.85;;
16705;SDS011;8469;60.136;15.180;2022-08-19T13:21:28;16.15;;;13.28;;
16705;SDS011;8469;60.136;15.180;2022-08-19T13:23:56;18.65;;;14.85;;
16705;SDS011;8469;60.136;15.180;2022-08-19T13:26:23;17.80;;;14.60;;
16705;SDS011;8469;60.136;15.180;2022-08-19T13:28:50;21.13;;;14.53;;
16705;SDS011;8469;60.136;15.180;2022-08-19T13:31:36;21.35;;;14.58;;
16705;SDS011;8469;60.136;15.180;2022-08-19T13:34:34;16.27;;;13.47;;
16705;SDS011;8469;60.136;15.180;2022-08-19T13:36:58;19.55;;;14.25;;
16705;SDS011;8469;60.136;15.180;2022-08-19T13:39:26;18.77;;;14.25;;
16705;SDS011;8469;60.136;15.180;2022-08-19T13:41:53;21.23;;;14.90;;
16705;SDS011;8469;60.136;15.180;2022-08-19T13:44:20;18.63;;;13.60;;
16705;SDS011;8469;60.136;15.180;2022-08-19T13:46:48;28.95;;;19.37;;
16705;SDS011;8469;60.136;15.180;2022-08-19T13:49:17;21.23;;;14.13;;
16705;SDS011;8469;60.136;15.180;2022-08-19T13:51:45;19.73;;;13.68;;
16705;SDS011;8469;60.136;15.180;2022-08-19T13:54:12;20.95;;;13.95;;
16705;SDS011;8469;60.136;15.180;2022-08-19T13:56:40;17.10;;;14.03;;
16705;SDS011;8469;60.136;15.180;2022-08-19T13:59:08;21.13;;;13.63;;
16705;SDS011;8469;60.136;15.180;2022-08-19T14:01:35;17.92;;;13.28;;
16705;SDS011;8469;60.136;15.180;2022-08-19T14:04:03;18.35;;;13.65;;
16705;SDS011;8469;60.136;15.180;2022-08-19T14:06:30;18.07;;;13.08;;
16705;SDS011;8469;60.136;15.180;2022-08-19T14:08:57;17.62;;;13.72;;
16705;SDS011;8469;60.136;15.180;2022-08-19T14:11:25;18.00;;;13.00;;
16705;SDS011;8469;60.136;15.180;2022-08-19T14:13:53;17.10;;;13.32;;
16705;SDS011;8469;60.136;15.180;2022-08-19T14:16:20;23.62;;;13.58;;
16705;SDS011;8469;60.136;15.180;2022-08-19T14:18:48;18.50;;;13.00;;
16705;SDS011;8469;60.136;15.180;2022-08-19T14:21:16;18.57;;;13.43;;
16705;SDS011;8469;60.136;15.180;2022-08-19T14:23:44;20.80;;;12.95;;
16705;SDS011;8469;60.136;15.180;2022-08-19T14:26:13;15.88;;;12.60;;
16705;SDS011;8469;60.136;15.180;2022-08-19T14:28:40;18.67;;;12.73;;
16705;SDS011;8469;60.136;15.180;2022-08-19T14:31:11;15.88;;;12.82;;
16705;SDS011;8469;60.136;15.180;2022-08-19T14:33:39;21.65;;;12.95;;
16705;SDS011;8469;60.136;15.180;2022-08-19T14:36:07;20.15;;;12.58;;
16705;SDS011;8469;60.136;15.180;2022-08-19T14:38:34;17.85;;;12.63;;
16705;SDS011;8469;60.136;15.180;2022-08-19T14:41:05;18.92;;;12.53;;
16705;SDS011;8469;60.136;15.180;2022-08-19T14:43:34;14.90;;;12.25;;
16705;SDS011;8469;60.136;15.180;2022-08-19T14:46:01;18.98;;;12.03;;